createdAt,value
2018-10-18T00:02:22.328Z,25
2018-10-18T00:07:24.758Z,24
2018-10-18T00:12:27.208Z,26
2018-10-18T00:17:29.625Z,26
2018-10-18T00:22:32.067Z,23
2018-10-18T00:27:34.516Z,23
2018-10-18T00:32:36.949Z,25
2018-10-18T00:37:39.394Z,24
2018-10-18T00:42:41.866Z,24
2018-10-18T00:47:44.273Z,24
2018-10-18T00:52:46.769Z,29
2018-10-18T00:57:49.146Z,26
2018-10-18T01:02:51.595Z,26
2018-10-18T01:07:54.091Z,30
2018-10-18T01:12:56.488Z,30
2018-10-18T01:17:58.982Z,30
2018-10-18T01:23:01.363Z,29
2018-10-18T01:28:03.796Z,29
2018-10-18T01:33:06.230Z,28
2018-10-18T01:38:08.731Z,28
2018-10-18T01:43:11.108Z,26
2018-10-18T01:48:13.648Z,28
2018-10-18T01:53:16.061Z,27
2018-10-18T01:58:18.427Z,26
2018-10-18T02:03:20.862Z,25
2018-10-18T02:08:23.328Z,23
2018-10-18T02:13:25.807Z,25
2018-10-18T02:18:28.194Z,26
2018-10-18T02:23:30.686Z,24
2018-10-18T02:28:33.074Z,28
2018-10-18T02:33:35.506Z,29
2018-10-18T02:38:37.961Z,26
2018-10-18T02:43:40.384Z,27
2018-10-18T02:48:42.858Z,28
2018-10-18T02:53:45.273Z,25
2018-10-18T02:58:47.722Z,24
2018-10-18T03:03:50.156Z,25
2018-10-18T03:08:57.603Z,25
2018-10-18T03:13:55.032Z,25
2018-10-18T03:18:57.487Z,21
2018-10-18T03:23:59.931Z,25
2018-10-18T03:29:02.352Z,27
2018-10-18T03:34:04.820Z,28
2018-10-18T03:39:07.262Z,27
2018-10-18T03:44:09.678Z,29
2018-10-18T03:49:12.129Z,30
2018-10-18T03:54:14.688Z,29
2018-10-18T03:59:17.227Z,27
2018-10-18T04:04:19.492Z,29
2018-10-18T04:09:26.872Z,33
2018-10-18T04:14:24.400Z,25
2018-10-18T04:19:26.771Z,27
2018-10-18T04:24:29.267Z,29
2018-10-18T04:34:39.081Z,25
2018-10-18T04:39:36.581Z,28
2018-10-18T04:44:38.970Z,27
2018-10-18T04:49:41.410Z,26
2018-10-18T04:54:43.868Z,29
2018-10-18T05:04:48.752Z,25
2018-10-18T05:09:51.159Z,26
2018-10-18T05:14:53.598Z,25
2018-10-18T05:19:56.044Z,28
2018-10-18T05:24:58.541Z,29
2018-10-18T05:30:00.936Z,31
2018-10-18T05:35:03.393Z,32
2018-10-18T05:40:05.809Z,34
2018-10-18T05:45:08.251Z,33
2018-10-18T05:50:10.703Z,31
2018-10-18T05:55:13.238Z,31
2018-10-18T06:00:15.663Z,32
2018-10-18T06:05:18.036Z,31
2018-10-18T06:10:20.599Z,27
2018-10-18T06:15:22.902Z,27
2018-10-18T06:20:25.354Z,31
2018-10-18T06:25:27.780Z,29
2018-10-18T06:30:30.219Z,32
2018-10-18T06:35:32.696Z,31
2018-10-18T06:40:35.102Z,31
2018-10-18T06:45:37.549Z,31
2018-10-18T06:50:40.084Z,33
2018-10-18T06:55:42.417Z,32
2018-10-18T07:00:44.889Z,34
2018-10-18T07:05:47.316Z,36
2018-10-18T07:10:49.796Z,35
2018-10-18T07:15:52.175Z,34
2018-10-18T07:20:54.638Z,34
2018-10-18T07:25:57.155Z,32
2018-10-18T07:30:59.511Z,34
2018-10-18T07:36:02.080Z,35
2018-10-18T07:41:04.386Z,34
2018-10-18T07:46:06.819Z,34
2018-10-18T07:51:09.585Z,33
2018-10-18T08:01:14.190Z,35
2018-10-18T08:06:16.594Z,35
2018-10-18T08:11:19.057Z,35
2018-10-18T08:16:21.463Z,36
2018-10-18T08:21:23.912Z,38
2018-10-18T08:26:26.372Z,36
2018-10-18T08:31:28.972Z,34
2018-10-18T08:36:31.433Z,36
2018-10-18T08:41:33.669Z,36
2018-10-18T08:46:36.122Z,41
2018-10-18T08:51:38.620Z,42
2018-10-18T08:56:40.999Z,41
2018-10-18T09:01:43.513Z,43
2018-10-18T09:06:45.876Z,40
2018-10-18T09:11:48.309Z,43
2018-10-18T09:16:50.761Z,44
2018-10-18T09:21:53.201Z,41
2018-10-18T09:26:55.628Z,56
2018-10-18T09:31:58.102Z,61
2018-10-18T09:37:00.592Z,62
2018-10-18T09:42:02.956Z,57
2018-10-18T09:47:05.407Z,57
2018-10-18T09:52:07.869Z,55
2018-10-18T09:57:10.284Z,55
2018-10-18T10:02:12.730Z,52
2018-10-18T10:07:15.278Z,53
2018-10-18T10:12:17.603Z,52
2018-10-18T10:17:20.119Z,53
2018-10-18T10:22:22.475Z,53
2018-10-18T10:27:24.931Z,51
2018-10-18T10:32:27.375Z,49
2018-10-18T10:37:29.816Z,48
2018-10-18T10:42:32.311Z,49
2018-10-18T10:47:34.690Z,48
2018-10-18T10:52:37.143Z,49
2018-10-18T10:57:39.570Z,46
2018-10-18T11:02:42.025Z,43
2018-10-18T11:07:44.477Z,43
2018-10-18T11:12:47.186Z,43
2018-10-18T11:17:49.320Z,43
2018-10-18T11:22:51.821Z,39
2018-10-18T11:27:54.213Z,40
2018-10-18T11:32:56.709Z,45
2018-10-18T11:37:59.140Z,45
2018-10-18T11:43:01.627Z,46
2018-10-18T11:48:04.012Z,46
2018-10-18T11:53:06.407Z,45
2018-10-18T11:58:08.881Z,45
2018-10-18T12:03:11.294Z,45
2018-10-18T12:08:13.883Z,46
2018-10-18T12:13:16.278Z,45
2018-10-18T12:18:18.629Z,48
2018-10-18T12:23:21.070Z,48
2018-10-18T12:28:23.552Z,46
2018-10-18T12:33:25.941Z,45
2018-10-18T12:38:28.669Z,48
2018-10-18T12:43:30.840Z,47
2018-10-18T12:48:33.311Z,48
2018-10-18T12:53:35.733Z,46
2018-10-18T12:58:38.170Z,44
2018-10-18T13:03:40.599Z,43
2018-10-18T13:08:43.075Z,45
2018-10-18T13:13:45.488Z,45
2018-10-18T13:18:47.973Z,47
2018-10-18T13:23:50.375Z,44
2018-10-18T13:28:52.807Z,45
2018-10-18T13:33:55.259Z,43
2018-10-18T13:38:57.712Z,48
2018-10-18T13:44:00.162Z,47
2018-10-18T13:49:02.606Z,48
2018-10-18T13:54:05.152Z,49
2018-10-18T13:59:07.576Z,55
2018-10-18T14:04:09.897Z,57
2018-10-18T14:09:12.342Z,57
2018-10-18T14:14:14.873Z,57
2018-10-18T14:19:17.239Z,58
2018-10-18T14:24:19.687Z,59
2018-10-18T14:29:22.087Z,61
2018-10-18T14:34:24.548Z,60
2018-10-18T14:39:27.110Z,58
2018-10-18T14:44:29.633Z,59
2018-10-18T14:49:31.900Z,61
2018-10-18T14:54:34.328Z,63
2018-10-18T14:59:36.747Z,65
2018-10-18T15:04:39.255Z,65
2018-10-18T15:09:41.626Z,66
2018-10-18T15:14:44.066Z,67
2018-10-18T15:19:46.506Z,68
2018-10-18T15:24:48.940Z,67
2018-10-18T15:29:51.475Z,69
2018-10-18T15:34:53.879Z,71
2018-10-18T15:39:56.270Z,73
2018-10-18T15:44:58.737Z,72
2018-10-18T15:50:01.155Z,77
2018-10-18T15:55:03.585Z,81
2018-10-18T16:00:06.168Z,82
2018-10-18T16:05:08.553Z,84
2018-10-18T16:10:10.922Z,83
2018-10-18T16:15:13.357Z,83
2018-10-18T16:20:15.875Z,82
2018-10-18T16:25:18.228Z,82
2018-10-18T16:30:20.696Z,79
2018-10-18T16:35:23.108Z,75
2018-10-18T16:40:25.592Z,71
2018-10-18T16:45:27.984Z,72
2018-10-18T16:50:30.468Z,72
2018-10-18T16:55:32.874Z,71
2018-10-18T17:00:35.318Z,70
2018-10-18T17:05:37.751Z,64
2018-10-18T17:10:40.197Z,65
2018-10-18T17:15:42.631Z,65
2018-10-18T17:20:45.460Z,63
2018-10-18T17:25:47.555Z,66
2018-10-18T17:30:50.012Z,67
2018-10-18T17:35:52.400Z,70
2018-10-18T17:40:54.837Z,81
2018-10-18T17:45:57.329Z,67
2018-10-18T17:50:59.718Z,72
2018-10-18T17:56:02.249Z,82
2018-10-18T18:01:04.604Z,74
2018-10-18T18:06:07.077Z,71
2018-10-18T18:11:09.477Z,65
2018-10-18T18:16:11.989Z,57
2018-10-18T18:21:14.474Z,53
2018-10-18T18:26:16.822Z,51
2018-10-18T18:31:19.246Z,52
2018-10-18T18:36:21.723Z,48
2018-10-18T18:41:24.122Z,49
2018-10-18T18:46:26.559Z,49
2018-10-18T18:51:29.020Z,49
2018-10-18T18:56:31.433Z,46
2018-10-18T19:01:33.885Z,45
2018-10-18T19:06:36.313Z,44
2018-10-18T19:11:38.778Z,43
2018-10-18T19:16:41.192Z,45
2018-10-18T19:21:43.648Z,42
2018-10-18T19:26:46.101Z,43
2018-10-18T19:31:48.535Z,41
2018-10-18T19:36:50.955Z,41
2018-10-18T19:41:53.410Z,41
2018-10-18T19:46:55.863Z,40
2018-10-18T19:51:58.299Z,41
2018-10-18T19:57:00.836Z,39
2018-10-18T20:02:03.203Z,42
2018-10-18T20:07:05.619Z,40
2018-10-18T20:12:08.101Z,39
2018-10-18T20:17:10.497Z,38
2018-10-18T20:22:12.919Z,38
2018-10-18T20:27:15.372Z,39
2018-10-18T20:32:17.844Z,35
2018-10-18T20:37:20.234Z,36
2018-10-18T20:42:22.707Z,35
2018-10-18T20:47:25.361Z,37
2018-10-18T20:52:27.616Z,34
2018-10-18T20:57:30.036Z,32
2018-10-18T21:02:32.445Z,33
2018-10-18T21:07:34.892Z,36
2018-10-18T21:12:37.346Z,33
2018-10-18T21:17:39.757Z,34
2018-10-18T21:22:42.213Z,36
2018-10-18T21:27:44.700Z,35
2018-10-18T21:32:47.086Z,33
2018-10-18T21:37:49.520Z,33
2018-10-18T21:42:51.970Z,34
2018-10-18T21:47:54.411Z,34
2018-10-18T21:52:56.995Z,32
2018-10-18T21:57:59.299Z,33
2018-10-18T22:03:01.890Z,32
2018-10-18T22:08:04.157Z,32
2018-10-18T22:13:06.603Z,31
2018-10-18T22:18:09.102Z,31
2018-10-18T22:23:11.527Z,31
2018-10-18T22:28:13.976Z,31
2018-10-18T22:33:16.443Z,29
2018-10-18T22:38:18.828Z,29
2018-10-18T22:43:21.279Z,29
2018-10-18T22:48:23.685Z,30
2018-10-18T22:53:26.146Z,27
2018-10-18T22:58:28.587Z,28
2018-10-18T23:03:31.016Z,27
2018-10-18T23:08:33.562Z,26
2018-10-18T23:13:35.899Z,27
2018-10-18T23:18:38.337Z,26
2018-10-18T23:23:40.771Z,25
2018-10-18T23:28:43.206Z,24
2018-10-18T23:33:45.780Z,25
2018-10-18T23:38:48.085Z,25
2018-10-18T23:43:50.529Z,23
2018-10-18T23:48:52.958Z,24
2018-10-18T23:53:55.445Z,24
2018-10-18T23:58:57.935Z,23
